createdAt,value
2022-12-26T00:00:56.430Z,17.23
2022-12-26T00:03:42.563Z,15.50
2022-12-26T00:06:30.242Z,17.00
2022-12-26T00:09:17.474Z,15.90
2022-12-26T00:12:03.533Z,16.25
2022-12-26T00:14:50.601Z,17.40
2022-12-26T00:17:36.567Z,18.58
2022-12-26T00:20:22.337Z,19.02
2022-12-26T00:23:08.278Z,20.38
2022-12-26T00:25:54.403Z,23.27
2022-12-26T00:28:40.403Z,24.65
2022-12-26T00:31:29.452Z,26.90
2022-12-26T00:34:15.897Z,20.85
2022-12-26T00:37:01.857Z,22.15
2022-12-26T00:39:47.749Z,18.92
2022-12-26T00:42:33.554Z,21.40
2022-12-26T00:45:19.325Z,18.15
2022-12-26T00:48:05.415Z,19.13
2022-12-26T00:50:51.438Z,19.73
2022-12-26T00:53:37.574Z,21.88
2022-12-26T00:56:23.733Z,20.75
2022-12-26T00:59:09.962Z,20.30
2022-12-26T01:01:55.972Z,18.30
2022-12-26T01:04:42.092Z,17.95
2022-12-26T01:07:27.747Z,19.52
2022-12-26T01:10:13.940Z,18.05
2022-12-26T01:12:59.885Z,19.27
2022-12-26T01:15:53.247Z,18.42
2022-12-26T01:18:39.230Z,18.42
2022-12-26T01:21:24.981Z,17.75
2022-12-26T01:24:10.751Z,16.27
2022-12-26T01:26:56.641Z,18.10
2022-12-26T01:29:42.515Z,17.50
2022-12-26T01:32:28.504Z,18.95
2022-12-26T01:35:14.452Z,18.30
2022-12-26T01:38:00.401Z,18.55
2022-12-26T01:40:46.623Z,20.35
2022-12-26T01:44:00.285Z,19.48
2022-12-26T01:46:46.495Z,19.50
2022-12-26T01:49:37.938Z,21.75
2022-12-26T01:52:30.876Z,22.00
2022-12-26T01:58:14.483Z,20.70
2022-12-26T02:01:02.212Z,20.67
2022-12-26T02:04:06.699Z,18.02
2022-12-26T02:06:52.989Z,18.25
2022-12-26T02:09:39.290Z,17.55
2022-12-26T02:12:38.813Z,16.15
2022-12-26T02:15:25.883Z,15.93
2022-12-26T02:18:11.774Z,15.75
2022-12-26T02:21:17.704Z,16.98
2022-12-26T02:24:15.762Z,16.00
2022-12-26T02:27:05.137Z,15.85
2022-12-26T02:30:08.794Z,15.65
2022-12-26T02:33:10.106Z,14.93
2022-12-26T02:35:58.973Z,15.57
2022-12-26T02:39:42.565Z,14.63
2022-12-26T02:42:54.237Z,13.98
2022-12-26T02:46:06.027Z,11.73
2022-12-26T02:48:51.676Z,11.13
2022-12-26T02:55:23.369Z,10.45
2022-12-26T02:58:36.854Z,10.25
2022-12-26T03:01:54.271Z,10.77
2022-12-26T03:04:59.591Z,11.10
2022-12-26T03:08:04.479Z,10.68
2022-12-26T03:11:10.736Z,10.88
2022-12-26T03:14:13.513Z,10.43
2022-12-26T03:17:22.401Z,9.27
2022-12-26T03:20:24.034Z,13.43
2022-12-26T03:23:12.808Z,10.10
2022-12-26T03:26:19.359Z,11.38
2022-12-26T03:29:30.141Z,9.63
2022-12-26T03:32:16.149Z,10.30
2022-12-26T03:35:02.137Z,10.45
2022-12-26T03:37:53.667Z,11.48
2022-12-26T03:41:15.077Z,13.32
2022-12-26T03:44:53.337Z,12.15
2022-12-26T03:48:02.395Z,11.45
2022-12-26T03:51:10.163Z,12.32
2022-12-26T03:54:26.759Z,10.98
2022-12-26T03:57:37.825Z,12.35
2022-12-26T04:00:42.295Z,11.65
2022-12-26T04:03:48.495Z,9.23
2022-12-26T04:07:04.767Z,10.40
2022-12-26T04:10:29.177Z,9.18
2022-12-26T04:13:41.041Z,9.93
2022-12-26T04:16:59.880Z,9.07
2022-12-26T04:20:21.684Z,9.45
2022-12-26T04:23:57.925Z,8.52
2022-12-26T04:27:04.100Z,8.50
2022-12-26T04:30:08.730Z,9.40
2022-12-26T04:33:16.147Z,9.00
2022-12-26T04:36:26.418Z,8.98
2022-12-26T04:39:33.022Z,7.50
2022-12-26T04:42:38.870Z,9.15
2022-12-26T04:45:26.442Z,8.30
2022-12-26T04:48:31.157Z,7.60
2022-12-26T04:51:17.352Z,7.15
2022-12-26T04:54:03.831Z,9.18
2022-12-26T04:56:50.005Z,8.25
2022-12-26T04:59:35.813Z,7.63
2022-12-26T05:02:40.439Z,7.20
2022-12-26T05:05:45.053Z,7.80
2022-12-26T05:08:59.237Z,7.97
2022-12-26T05:11:47.333Z,7.50
2022-12-26T05:14:36.006Z,7.78
2022-12-26T05:17:40.626Z,7.97
2022-12-26T05:20:49.715Z,8.40
2022-12-26T05:23:54.190Z,7.72
2022-12-26T05:26:58.642Z,8.48
2022-12-26T05:29:44.709Z,8.25
2022-12-26T05:32:49.223Z,8.55
2022-12-26T05:35:35.598Z,9.23
2022-12-26T05:38:21.527Z,7.47
2022-12-26T05:41:07.367Z,8.30
2022-12-26T05:43:53.383Z,8.55
2022-12-26T05:46:39.657Z,8.68
2022-12-26T05:49:25.317Z,10.15
2022-12-26T05:52:11.192Z,9.40
2022-12-26T05:54:57.114Z,11.23
2022-12-26T05:57:43.034Z,9.35
2022-12-26T06:00:30.107Z,10.52
2022-12-26T06:03:16.226Z,11.32
2022-12-26T06:06:02.147Z,10.68
2022-12-26T06:08:49.185Z,10.13
2022-12-26T06:11:35.154Z,10.13
2022-12-26T06:14:21.171Z,9.63
2022-12-26T06:17:06.871Z,12.63
2022-12-26T06:19:52.855Z,11.68
2022-12-26T06:22:38.611Z,11.15
2022-12-26T06:25:24.594Z,11.32
2022-12-26T06:28:10.281Z,11.70
2022-12-26T06:31:11.656Z,8.43
2022-12-26T06:33:58.463Z,9.40
2022-12-26T06:36:44.415Z,9.95
2022-12-26T06:39:30.173Z,10.38
2022-12-26T06:42:16.059Z,9.90
2022-12-26T06:45:01.787Z,9.52
2022-12-26T06:47:47.607Z,9.85
2022-12-26T06:50:36.442Z,13.57
2022-12-26T06:53:26.193Z,13.90
2022-12-26T06:56:14.715Z,14.13
2022-12-26T06:59:02.757Z,13.15
2022-12-26T07:01:49.118Z,10.50
2022-12-26T07:04:35.303Z,10.48
2022-12-26T07:07:21.092Z,11.27
2022-12-26T07:10:18.484Z,11.13
2022-12-26T07:13:13.670Z,13.77
2022-12-26T07:16:00.885Z,12.68
2022-12-26T07:18:46.958Z,11.80
2022-12-26T07:21:39.816Z,11.27
2022-12-26T07:24:26.311Z,16.48
2022-12-26T07:27:12.171Z,20.20
2022-12-26T07:29:58.122Z,21.42
2022-12-26T07:32:46.377Z,19.70
2022-12-26T07:35:32.377Z,15.98
2022-12-26T07:38:18.285Z,16.00
2022-12-26T07:41:22.513Z,15.23
2022-12-26T07:44:10.359Z,14.05
2022-12-26T07:46:56.950Z,13.45
2022-12-26T07:49:42.908Z,14.07
2022-12-26T07:52:28.712Z,16.30
2022-12-26T07:55:14.784Z,20.73
2022-12-26T07:58:00.923Z,21.42
2022-12-26T08:00:46.773Z,23.45
2022-12-26T08:03:33.631Z,32.15
2022-12-26T08:06:20.058Z,40.70
2022-12-26T08:09:06.147Z,43.97
2022-12-26T08:11:52.227Z,48.25
2022-12-26T08:14:38.309Z,55.13
2022-12-26T08:17:24.263Z,52.13
2022-12-26T08:20:10.416Z,44.47
2022-12-26T08:25:48.308Z,42.35
2022-12-26T08:28:34.790Z,40.53
2022-12-26T08:31:56.725Z,39.42
2022-12-26T08:34:42.587Z,37.95
2022-12-26T08:37:28.338Z,34.13
2022-12-26T08:40:15.515Z,30.85
2022-12-26T08:43:22.143Z,34.05
2022-12-26T08:46:12.134Z,33.10
2022-12-26T08:48:57.916Z,32.28
2022-12-26T08:51:43.830Z,26.65
2022-12-26T08:54:29.828Z,26.42
2022-12-26T08:57:15.932Z,26.35
2022-12-26T09:00:01.873Z,25.60
2022-12-26T09:02:48.225Z,28.08
2022-12-26T09:05:33.877Z,26.38
2022-12-26T09:08:19.762Z,28.02
2022-12-26T09:11:07.755Z,27.17
2022-12-26T09:13:55.121Z,29.73
2022-12-26T09:16:49.769Z,31.73
2022-12-26T09:19:36.911Z,35.65
2022-12-26T09:22:41.322Z,44.78
2022-12-26T09:25:27.756Z,43.67
2022-12-26T09:28:14.027Z,50.95
2022-12-26T09:31:01.656Z,47.45
2022-12-26T09:33:47.928Z,50.83
2022-12-26T09:36:38.180Z,53.65
2022-12-26T09:39:24.295Z,52.80
2022-12-26T09:42:31.804Z,50.92
2022-12-26T09:45:20.150Z,51.97
2022-12-26T09:48:12.391Z,54.15
2022-12-26T09:50:58.499Z,38.15
2022-12-26T09:53:47.728Z,53.20
2022-12-26T09:57:01.771Z,51.63
2022-12-26T09:59:51.427Z,53.35
2022-12-26T10:02:37.403Z,50.25
2022-12-26T10:05:51.021Z,48.38
2022-12-26T10:09:01.790Z,54.95
2022-12-26T10:12:04.046Z,57.13
2022-12-26T10:15:27.540Z,52.17
2022-12-26T10:18:23.035Z,61.28
2022-12-26T10:21:15.030Z,61.20
2022-12-26T10:24:05.375Z,68.50
2022-12-26T10:27:02.456Z,67.97
2022-12-26T10:29:58.848Z,62.53
2022-12-26T10:32:48.513Z,68.75
2022-12-26T10:35:45.664Z,71.90
2022-12-26T10:38:41.001Z,66.07
2022-12-26T10:41:36.017Z,63.30
2022-12-26T10:44:27.384Z,62.55
2022-12-26T10:47:16.944Z,57.95
2022-12-26T10:50:03.365Z,67.90
2022-12-26T10:52:49.767Z,71.45
2022-12-26T10:55:35.840Z,64.20
2022-12-26T10:58:26.425Z,55.15
2022-12-26T11:01:36.454Z,55.72
2022-12-26T11:05:02.223Z,54.45
2022-12-26T11:07:36.244Z,52.60
2022-12-26T11:10:25.167Z,51.23
2022-12-26T11:13:19.116Z,48.47
2022-12-26T11:16:05.718Z,47.25
2022-12-26T11:18:53.653Z,46.97
2022-12-26T11:21:39.527Z,44.70
2022-12-26T11:24:25.242Z,43.60
2022-12-26T11:27:20.481Z,40.33
2022-12-26T11:30:12.604Z,42.30
2022-12-26T11:33:18.540Z,45.13
2022-12-26T11:36:07.722Z,46.17
2022-12-26T11:39:24.016Z,44.38
2022-12-26T11:42:20.114Z,47.08
2022-12-26T11:45:11.296Z,49.85
2022-12-26T11:48:00.034Z,45.50
2022-12-26T11:50:46.609Z,45.65
2022-12-26T11:53:34.922Z,47.53
2022-12-26T11:56:26.274Z,47.28
2022-12-26T11:59:23.708Z,47.13
2022-12-26T12:02:23.153Z,48.40
2022-12-26T12:05:29.116Z,50.13
2022-12-26T12:08:16.414Z,47.45
2022-12-26T12:11:21.121Z,51.72
2022-12-26T12:14:30.670Z,53.83
2022-12-26T12:17:38.571Z,60.47
2022-12-26T12:20:51.821Z,94.15
2022-12-26T12:24:15.122Z,60.42
2022-12-26T12:27:09.556Z,84.30
2022-12-26T12:30:13.782Z,84.50
2022-12-26T12:33:11.761Z,82.78
2022-12-26T12:36:10.153Z,74.25
2022-12-26T12:39:12.917Z,71.10
2022-12-26T12:42:29.887Z,73.78
2022-12-26T12:45:27.153Z,72.50
2022-12-26T12:48:38.610Z,78.68
2022-12-26T12:51:37.393Z,80.60
2022-12-26T12:54:34.462Z,78.10
2022-12-26T12:57:58.014Z,80.78
2022-12-26T13:03:45.963Z,80.50
2022-12-26T13:06:42.542Z,77.50
2022-12-26T13:09:50.879Z,75.00
2022-12-26T13:12:39.306Z,77.47
2022-12-26T13:15:32.375Z,76.97
2022-12-26T13:18:24.224Z,75.18
2022-12-26T13:21:12.460Z,71.63
2022-12-26T13:24:24.650Z,70.88
2022-12-26T13:27:21.727Z,66.28
2022-12-26T13:30:16.311Z,55.25
2022-12-26T13:33:03.954Z,54.83
2022-12-26T13:35:52.801Z,53.63
2022-12-26T13:38:56.878Z,53.03
2022-12-26T13:42:11.124Z,51.22
2022-12-26T13:45:35.308Z,53.08
2022-12-26T13:48:21.247Z,55.85
2022-12-26T13:51:43.846Z,53.78
2022-12-26T13:54:30.499Z,55.38
2022-12-26T13:57:34.468Z,55.40
2022-12-26T14:00:25.317Z,53.97
2022-12-26T14:03:38.383Z,56.08
2022-12-26T14:09:31.210Z,54.03
2022-12-26T14:12:49.141Z,57.38
2022-12-26T14:15:47.267Z,57.95
2022-12-26T14:18:43.061Z,57.95
2022-12-26T14:21:57.571Z,58.65
2022-12-26T14:25:08.415Z,60.85
2022-12-26T14:28:04.794Z,64.07
2022-12-26T14:30:54.519Z,67.13
2022-12-26T14:34:13.100Z,66.95
2022-12-26T14:37:21.161Z,62.92
2022-12-26T14:40:30.324Z,63.30
2022-12-26T14:43:34.530Z,66.05
2022-12-26T14:46:35.467Z,70.47
2022-12-26T14:49:35.395Z,65.38
2022-12-26T14:52:24.761Z,71.35
2022-12-26T14:55:40.193Z,91.40
2022-12-26T14:58:36.421Z,79.82
2022-12-26T15:01:22.376Z,89.30
2022-12-26T15:04:41.514Z,84.65
2022-12-26T15:07:58.288Z,85.75
2022-12-26T15:11:08.222Z,83.78
2022-12-26T15:14:22.244Z,90.90
2022-12-26T15:17:08.692Z,77.90
2022-12-26T15:19:54.841Z,80.45
2022-12-26T15:22:59.274Z,77.32
2022-12-26T15:26:10.032Z,80.55
2022-12-26T15:29:17.200Z,77.35
2022-12-26T15:32:14.272Z,83.72
2022-12-26T15:35:34.930Z,80.30
2022-12-26T15:38:41.681Z,79.68
2022-12-26T15:41:42.614Z,83.78
2022-12-26T15:44:35.225Z,82.57
2022-12-26T15:47:54.532Z,83.88
2022-12-26T15:51:22.515Z,84.68
2022-12-26T15:54:44.046Z,85.97
2022-12-26T15:57:41.373Z,82.45
2022-12-26T16:00:31.179Z,139.52
2022-12-26T16:03:29.570Z,186.23
2022-12-26T16:06:43.441Z,144.52
2022-12-26T16:09:47.820Z,151.93
2022-12-26T16:12:35.853Z,180.05
2022-12-26T16:15:25.152Z,158.98
2022-12-26T16:18:20.804Z,169.85
2022-12-26T16:21:25.396Z,160.32
2022-12-26T16:24:13.011Z,185.23
2022-12-26T16:27:02.071Z,172.18
2022-12-26T16:29:51.434Z,161.18
2022-12-26T16:32:38.970Z,163.90
2022-12-26T16:35:39.404Z,177.55
2022-12-26T16:38:28.185Z,188.05
2022-12-26T16:41:23.327Z,182.27
2022-12-26T16:44:31.179Z,168.57
2022-12-26T16:47:17.219Z,168.95
2022-12-26T16:50:05.233Z,166.25
2022-12-26T16:53:19.972Z,165.10
2022-12-26T16:56:29.416Z,169.80
2022-12-26T16:59:18.501Z,153.35
2022-12-26T17:02:04.782Z,158.20
2022-12-26T17:04:58.256Z,154.98
2022-12-26T17:07:45.791Z,154.93
2022-12-26T17:10:34.981Z,171.23
2022-12-26T17:13:24.608Z,156.10
2022-12-26T17:16:10.908Z,162.32
2022-12-26T17:19:08.944Z,156.27
2022-12-26T17:22:19.086Z,157.90
2022-12-26T17:25:17.146Z,153.40
2022-12-26T17:28:09.763Z,156.60
2022-12-26T17:30:56.012Z,137.68
2022-12-26T17:33:47.664Z,128.10
2022-12-26T17:39:40.312Z,126.00
2022-12-26T17:42:26.353Z,129.20
2022-12-26T17:45:17.991Z,123.68
2022-12-26T17:48:04.204Z,119.80
2022-12-26T17:50:55.287Z,119.40
2022-12-26T17:53:42.171Z,123.95
2022-12-26T17:56:28.168Z,115.38
2022-12-26T17:59:14.448Z,105.90
2022-12-26T18:02:00.558Z,92.65
2022-12-26T18:04:47.471Z,83.90
2022-12-26T18:07:33.391Z,87.90
2022-12-26T18:10:22.701Z,87.22
2022-12-26T18:13:16.290Z,89.07
2022-12-26T18:16:02.553Z,83.53
2022-12-26T18:18:48.736Z,80.90
2022-12-26T18:21:34.528Z,74.70
2022-12-26T18:24:20.655Z,70.93
2022-12-26T18:27:07.029Z,68.88
2022-12-26T18:29:53.336Z,75.68
2022-12-26T18:32:44.413Z,79.07
2022-12-26T18:35:30.805Z,71.93
2022-12-26T18:38:18.930Z,66.90
2022-12-26T18:41:05.200Z,77.82
2022-12-26T18:43:51.346Z,89.75
2022-12-26T18:46:37.627Z,85.18
2022-12-26T18:49:23.449Z,89.00
2022-12-26T18:52:09.919Z,79.32
2022-12-26T18:54:55.723Z,78.10
2022-12-26T18:57:41.786Z,80.65
2022-12-26T19:00:27.826Z,77.22
2022-12-26T19:03:13.830Z,77.75
2022-12-26T19:05:59.678Z,74.55
2022-12-26T19:08:45.633Z,76.43
2022-12-26T19:11:31.466Z,75.22
2022-12-26T19:14:20.530Z,76.90
2022-12-26T19:17:06.516Z,72.68
2022-12-26T19:19:52.608Z,77.78
2022-12-26T19:22:38.564Z,76.43
2022-12-26T19:25:25.762Z,78.47
2022-12-26T19:28:11.809Z,77.63
2022-12-26T19:30:57.714Z,84.40
2022-12-26T19:33:43.624Z,95.72
2022-12-26T19:36:29.920Z,96.93
2022-12-26T19:39:15.890Z,96.75
2022-12-26T19:42:01.729Z,97.40
2022-12-26T19:44:48.135Z,93.97
2022-12-26T19:47:34.830Z,93.70
2022-12-26T19:50:20.520Z,89.88
2022-12-26T19:53:06.307Z,89.05
2022-12-26T19:55:57.548Z,86.07
2022-12-26T19:58:45.130Z,85.30
2022-12-26T20:01:32.042Z,87.35
2022-12-26T20:04:18.447Z,83.85
2022-12-26T20:07:05.407Z,79.90
2022-12-26T20:09:51.390Z,74.30
2022-12-26T20:12:37.437Z,67.13
2022-12-26T20:15:23.271Z,68.43
2022-12-26T20:18:13.594Z,66.75
2022-12-26T20:21:00.888Z,67.13
2022-12-26T20:23:47.118Z,71.72
2022-12-26T20:26:33.541Z,77.32
2022-12-26T20:29:19.885Z,68.95
2022-12-26T20:32:05.774Z,71.07
2022-12-26T20:34:52.070Z,77.03
2022-12-26T20:37:38.041Z,76.78
2022-12-26T20:40:25.479Z,78.90
2022-12-26T20:43:11.727Z,75.28
2022-12-26T20:46:00.776Z,72.85
2022-12-26T20:48:50.448Z,68.70
2022-12-26T20:51:38.625Z,67.75
2022-12-26T20:54:24.940Z,68.00
2022-12-26T20:57:10.967Z,70.70
2022-12-26T20:59:57.016Z,70.18
2022-12-26T21:02:43.012Z,68.25
2022-12-26T21:05:29.257Z,67.47
2022-12-26T21:08:14.978Z,65.50
2022-12-26T21:11:11.577Z,73.93
2022-12-26T21:14:00.420Z,73.70
2022-12-26T21:16:58.256Z,72.38
2022-12-26T21:19:45.180Z,76.68
2022-12-26T21:22:31.204Z,68.15
2022-12-26T21:25:17.148Z,58.97
2022-12-26T21:28:03.636Z,61.67
2022-12-26T21:30:49.792Z,61.03
2022-12-26T21:33:42.206Z,60.13
2022-12-26T21:36:30.556Z,58.60
2022-12-26T21:39:16.657Z,57.80
2022-12-26T21:42:02.642Z,57.40
2022-12-26T21:44:48.625Z,56.33
2022-12-26T21:47:34.542Z,55.55
2022-12-26T21:50:20.625Z,55.63
2022-12-26T21:53:07.332Z,82.43
2022-12-26T21:55:53.340Z,64.72
2022-12-26T21:58:58.365Z,56.47
2022-12-26T22:01:44.490Z,51.15
2022-12-26T22:04:30.347Z,49.08
2022-12-26T22:07:16.035Z,52.15
2022-12-26T22:10:03.048Z,52.17
2022-12-26T22:12:57.725Z,52.50
2022-12-26T22:16:03.891Z,52.25
2022-12-26T22:18:49.964Z,50.17
2022-12-26T22:21:35.984Z,49.75
2022-12-26T22:24:22.508Z,49.17
2022-12-26T22:27:08.287Z,50.30
2022-12-26T22:29:54.154Z,50.80
2022-12-26T22:32:40.083Z,50.15
2022-12-26T22:35:25.930Z,57.47
2022-12-26T22:38:11.866Z,55.30
2022-12-26T22:40:58.891Z,51.63
2022-12-26T22:43:45.382Z,54.17
2022-12-26T22:46:31.687Z,52.17
2022-12-26T22:49:17.409Z,54.85
2022-12-26T22:52:03.414Z,54.33
2022-12-26T22:54:49.378Z,57.58
2022-12-26T22:57:35.186Z,55.05
2022-12-26T23:00:21.118Z,60.38
2022-12-26T23:03:07.348Z,59.85
2022-12-26T23:05:54.383Z,57.58
2022-12-26T23:08:40.449Z,53.83
2022-12-26T23:11:34.473Z,51.88
2022-12-26T23:14:21.354Z,53.08
2022-12-26T23:17:10.791Z,49.55
2022-12-26T23:20:15.485Z,47.63
2022-12-26T23:23:01.772Z,46.08
2022-12-26T23:25:48.132Z,43.05
2022-12-26T23:28:52.577Z,44.83
2022-12-26T23:31:38.690Z,46.05
2022-12-26T23:34:24.503Z,50.80
2022-12-26T23:37:10.235Z,50.90
2022-12-26T23:39:56.125Z,49.58
2022-12-26T23:42:42.060Z,50.50
2022-12-26T23:45:27.805Z,52.38
2022-12-26T23:48:13.985Z,51.53
2022-12-26T23:51:04.989Z,51.60
2022-12-26T23:53:50.813Z,61.28
2022-12-26T23:56:37.498Z,65.18
2022-12-26T23:59:23.789Z,61.25
